首页
METAR-TAF:

METAR-TAF

机场 :

迪奥里·哈马尼国际机场

尼亞美, 尼日尔

纬度: 13-29N, 经度: 002-10E, 海拔: 223米

当前天气观测

该预报发布于17分钟前的04:00 UTC
风速8节,风向西南
温度 33°C
湿度 44%
气压 1009 hPa
能见度10公里或以上
1500米以下无云,无积雨云

METAR: DRRN 280400Z 22008KT CAVOK 33/19 Q1009 NOSIG

时间: 05:17 (04:17 UTC)

预报

该预报发布于5小时和17分钟前的23:00 UTC
预报有效从28日的 00点(UTC)到 29日的 06点(UTC)
风速8节,风向西转西南
能见度10公里或以上
1500米以下无云,无积雨云
短暂存在
从 28日的 14点(UTC)到 28日的 18点(UTC)
风速25节,风向东南,有时为35节阵风
能見度: 1200
散云层高于3000英尺
少量云层高于4000英尺, 积雨云.
飑, 高吹尘, 雷暴, 雨,

TAF: DRRN 272300Z 2800/2906 24008KT CAVOK TEMPO 2814/2818 14025G35KT 1200 SQ BLDU TSRA SCT030 FEW040CB

超过4000个机场的气象观测和天气预报(METAR&TAF报告)。

可查询的气象台以黄色和红色小点在地图上表示。

将鼠标移到小点上方,可查看气象台名称。

然后点击查看天气观测和预报。

如需切换地图:点击带黑十字的绿色按钮放大地图;点击带横线的绿色按钮缩小地图;或者点击绿色箭头查看邻近地区的地图。


METAR-TAF: